createdAt,value
2018-03-29T00:00:56.340Z,12.93
2018-03-29T00:03:24.439Z,15.77
2018-03-29T00:05:52.634Z,13.05
2018-03-29T00:08:20.733Z,14.05
2018-03-29T00:10:48.861Z,13.25
2018-03-29T00:13:17.211Z,15.75
2018-03-29T00:15:45.323Z,15.45
2018-03-29T00:18:13.403Z,17.17
2018-03-29T00:20:41.539Z,12.02
2018-03-29T00:23:09.759Z,13.43
2018-03-29T00:25:37.854Z,14.43
2018-03-29T00:28:06.252Z,15.63
2018-03-29T00:30:34.362Z,15.80
2018-03-29T00:33:02.493Z,19.20
2018-03-29T00:35:31.114Z,15.75
2018-03-29T00:37:59.231Z,17.10
2018-03-29T00:40:27.322Z,20.08
2018-03-29T00:42:55.415Z,22.00
2018-03-29T00:45:23.543Z,21.48
2018-03-29T00:47:52.537Z,16.95
2018-03-29T00:50:20.650Z,23.05
2018-03-29T00:52:48.745Z,21.75
2018-03-29T00:55:16.879Z,19.23
2018-03-29T00:57:44.969Z,20.17
2018-03-29T01:00:13.067Z,19.70
2018-03-29T01:02:41.601Z,20.70
2018-03-29T01:05:09.674Z,20.52
2018-03-29T01:07:37.770Z,23.30
2018-03-29T01:10:05.866Z,18.33
2018-03-29T01:12:34.365Z,19.92
2018-03-29T01:15:02.467Z,25.60
2018-03-29T01:17:30.634Z,18.98
2018-03-29T01:19:58.746Z,20.17
2018-03-29T01:22:27.205Z,21.25
2018-03-29T01:24:55.301Z,20.33
2018-03-29T01:27:24.190Z,20.00
2018-03-29T01:29:52.477Z,18.48
2018-03-29T01:32:32.361Z,20.83
2018-03-29T01:35:00.965Z,20.98
2018-03-29T01:37:29.058Z,20.58
2018-03-29T01:39:57.326Z,24.25
2018-03-29T01:42:25.422Z,20.80
2018-03-29T01:44:53.517Z,23.12
2018-03-29T01:47:21.657Z,19.48
2018-03-29T01:49:50.090Z,19.70
2018-03-29T01:52:18.191Z,21.37
2018-03-29T01:54:46.309Z,22.25
2018-03-29T01:57:14.411Z,22.40
2018-03-29T01:59:42.501Z,24.70
2018-03-29T02:02:10.607Z,28.52
2018-03-29T02:04:38.752Z,22.00
2018-03-29T02:07:06.844Z,20.60
2018-03-29T02:09:34.995Z,23.92
2018-03-29T02:12:03.155Z,27.27
2018-03-29T02:14:31.249Z,24.90
2018-03-29T02:16:59.369Z,29.73
2018-03-29T02:19:27.476Z,40.17
2018-03-29T02:21:56.266Z,28.45
2018-03-29T02:24:25.131Z,27.27
2018-03-29T02:26:53.240Z,29.15
2018-03-29T02:29:22.287Z,26.58
2018-03-29T02:31:50.380Z,29.92
2018-03-29T02:34:18.843Z,26.25
2018-03-29T02:36:46.956Z,28.05
2018-03-29T02:39:15.155Z,33.75
2018-03-29T02:41:43.254Z,29.58
2018-03-29T02:44:12.551Z,26.73
2018-03-29T02:46:40.678Z,28.85
2018-03-29T02:49:08.777Z,28.52
2018-03-29T02:51:36.871Z,30.45
2018-03-29T02:54:04.981Z,32.40
2018-03-29T02:56:33.085Z,27.77
2018-03-29T02:59:01.183Z,29.63
2018-03-29T03:01:29.563Z,31.12
2018-03-29T03:03:57.833Z,29.65
2018-03-29T03:06:25.962Z,30.40
2018-03-29T03:08:54.995Z,31.45
2018-03-29T03:11:23.114Z,33.80
2018-03-29T03:26:41.225Z,32.80
2018-03-29T03:29:09.333Z,34.58
2018-03-29T03:31:37.470Z,31.23
2018-03-29T03:34:05.600Z,27.35
2018-03-29T03:36:33.705Z,31.65
2018-03-29T03:39:02.740Z,34.28
2018-03-29T03:41:30.857Z,31.73
2018-03-29T03:43:59.003Z,29.30
2018-03-29T03:46:27.577Z,35.90
2018-03-29T03:48:55.685Z,29.23
2018-03-29T03:51:24.037Z,35.47
2018-03-29T03:53:52.142Z,31.42
2018-03-29T03:56:20.299Z,35.55
2018-03-29T03:58:48.413Z,39.90
2018-03-29T04:01:16.517Z,33.42
2018-03-29T04:03:44.663Z,31.45
2018-03-29T04:06:12.786Z,31.83
2018-03-29T04:08:41.232Z,35.30
2018-03-29T04:11:09.703Z,34.80
2018-03-29T04:13:37.825Z,33.25
2018-03-29T04:16:06.232Z,37.05
2018-03-29T04:18:34.665Z,31.27
2018-03-29T04:21:02.780Z,37.97
2018-03-29T04:23:30.861Z,40.40
2018-03-29T04:25:58.985Z,36.05
2018-03-29T04:41:17.133Z,35.30
2018-03-29T04:43:45.550Z,39.28
2018-03-29T04:46:13.631Z,30.48
2018-03-29T04:48:42.488Z,33.35
2018-03-29T04:51:10.613Z,30.90
2018-03-29T04:53:39.651Z,31.90
2018-03-29T04:56:07.865Z,34.47
2018-03-29T04:58:36.250Z,32.60
2018-03-29T05:01:04.345Z,40.08
2018-03-29T05:03:32.460Z,30.67
2018-03-29T05:06:00.554Z,29.30
2018-03-29T05:08:28.734Z,31.50
2018-03-29T05:10:56.851Z,33.83
2018-03-29T05:13:24.951Z,42.72
2018-03-29T05:15:53.080Z,35.67
2018-03-29T05:18:21.207Z,32.42
2018-03-29T05:20:49.315Z,30.95
2018-03-29T05:23:18.451Z,29.87
2018-03-29T05:25:46.773Z,32.35
2018-03-29T05:28:14.865Z,31.45
2018-03-29T05:30:44.249Z,30.10
2018-03-29T05:33:12.355Z,30.40
2018-03-29T05:35:40.547Z,30.40
2018-03-29T05:38:09.005Z,30.50
2018-03-29T05:40:37.658Z,32.70
2018-03-29T05:43:08.285Z,31.80
2018-03-29T05:45:36.401Z,35.15
2018-03-29T05:48:04.510Z,34.92
2018-03-29T05:50:32.613Z,41.30
2018-03-29T05:53:01.257Z,35.22
2018-03-29T05:55:29.470Z,35.08
2018-03-29T05:57:57.573Z,36.15
2018-03-29T06:00:25.682Z,33.53
2018-03-29T06:02:53.890Z,38.28
2018-03-29T06:05:21.997Z,39.75
2018-03-29T06:07:50.126Z,43.75
2018-03-29T06:10:18.227Z,43.33
2018-03-29T06:12:46.370Z,40.78
2018-03-29T06:15:16.391Z,49.05
2018-03-29T06:17:44.565Z,42.97
2018-03-29T06:20:12.920Z,48.35
2018-03-29T06:22:41.038Z,47.47
2018-03-29T06:25:09.153Z,42.53
2018-03-29T06:27:37.908Z,43.72
2018-03-29T06:30:06.210Z,44.55
2018-03-29T06:32:34.308Z,44.03
2018-03-29T06:35:02.478Z,45.42
2018-03-29T06:37:30.598Z,47.55
2018-03-29T06:39:58.708Z,46.15
2018-03-29T06:42:26.813Z,47.62
2018-03-29T06:44:54.909Z,47.15
2018-03-29T06:47:23.039Z,45.65
2018-03-29T06:49:51.130Z,43.30
2018-03-29T06:52:19.266Z,51.08
2018-03-29T06:54:47.390Z,43.00
2018-03-29T06:57:15.474Z,45.97
2018-03-29T06:59:44.186Z,43.97
2018-03-29T07:02:12.334Z,45.22
2018-03-29T07:04:40.446Z,40.63
2018-03-29T07:07:08.546Z,45.00
2018-03-29T07:09:37.136Z,40.00
2018-03-29T07:12:05.287Z,48.20
2018-03-29T07:14:33.938Z,35.60
2018-03-29T07:17:02.056Z,43.20
2018-03-29T07:19:31.204Z,41.37
2018-03-29T07:21:59.293Z,38.45
2018-03-29T07:24:27.466Z,46.08
2018-03-29T07:26:55.574Z,46.63
2018-03-29T07:29:24.633Z,42.92
2018-03-29T07:31:52.726Z,41.25
2018-03-29T07:47:15.861Z,37.90
2018-03-29T07:49:43.965Z,37.80
2018-03-29T07:52:12.099Z,38.22
2018-03-29T07:54:40.206Z,41.20
2018-03-29T07:57:08.306Z,36.30
2018-03-29T07:59:36.540Z,38.78
2018-03-29T08:02:04.673Z,40.08
2018-03-29T08:04:32.815Z,37.95
2018-03-29T08:07:00.923Z,39.28
2018-03-29T08:09:29.032Z,40.22
2018-03-29T08:11:57.130Z,39.53
2018-03-29T08:14:25.256Z,36.30
2018-03-29T08:16:53.648Z,38.03
2018-03-29T08:19:21.812Z,43.03
2018-03-29T08:21:49.965Z,40.92
2018-03-29T08:24:19.057Z,39.17
2018-03-29T08:26:47.199Z,36.33
2018-03-29T08:29:16.102Z,41.97
2018-03-29T08:31:44.195Z,43.20
2018-03-29T08:34:12.282Z,40.58
2018-03-29T08:36:40.386Z,38.03
2018-03-29T08:39:08.759Z,37.53
2018-03-29T08:41:36.878Z,36.45
2018-03-29T08:44:05.118Z,37.33
2018-03-29T08:46:33.190Z,35.80
2018-03-29T08:49:01.305Z,42.80
2018-03-29T08:51:29.428Z,38.38
2018-03-29T08:53:57.522Z,32.17
2018-03-29T08:56:25.626Z,36.50
2018-03-29T08:58:53.752Z,36.92
2018-03-29T09:01:21.834Z,37.50
2018-03-29T09:03:50.746Z,34.20
2018-03-29T09:06:18.830Z,31.45
2018-03-29T09:08:47.012Z,32.20
2018-03-29T09:11:15.072Z,29.63
2018-03-29T09:13:43.176Z,40.47
2018-03-29T09:16:12.130Z,29.17
2018-03-29T09:18:40.249Z,34.60
2018-03-29T09:21:09.182Z,29.08
2018-03-29T09:23:37.291Z,30.85
2018-03-29T09:26:05.416Z,31.65
2018-03-29T09:28:33.514Z,25.77
2018-03-29T09:31:01.630Z,26.65
2018-03-29T09:33:29.729Z,22.58
2018-03-29T09:35:57.834Z,24.30
2018-03-29T09:38:25.946Z,24.50
2018-03-29T09:40:54.270Z,26.48
2018-03-29T09:43:22.387Z,28.48
2018-03-29T09:45:50.492Z,19.77
2018-03-29T09:48:18.598Z,18.95
2018-03-29T09:50:46.749Z,21.67
2018-03-29T09:53:15.999Z,20.15
2018-03-29T09:55:44.127Z,20.85
2018-03-29T09:58:12.226Z,18.98
2018-03-29T10:00:40.353Z,15.80
2018-03-29T10:03:09.278Z,17.90
2018-03-29T10:05:38.192Z,19.08
2018-03-29T10:08:06.354Z,18.73
2018-03-29T10:10:34.458Z,15.15
2018-03-29T10:13:02.570Z,15.90
2018-03-29T10:15:30.704Z,18.77
2018-03-29T10:17:58.796Z,15.35
2018-03-29T10:20:26.894Z,19.52
2018-03-29T10:22:55.030Z,17.60
2018-03-29T10:38:13.154Z,19.75
2018-03-29T10:40:41.262Z,20.12
2018-03-29T10:43:10.158Z,20.85
2018-03-29T10:45:39.068Z,19.37
2018-03-29T10:48:07.183Z,14.85
2018-03-29T10:50:35.322Z,21.17
2018-03-29T10:53:03.450Z,17.42
2018-03-29T10:55:31.580Z,14.57
2018-03-29T10:57:59.695Z,20.27
2018-03-29T11:13:22.897Z,10.45
2018-03-29T11:15:51.214Z,10.82
2018-03-29T11:18:19.315Z,12.02
2018-03-29T11:20:48.040Z,8.63
2018-03-29T11:23:16.170Z,6.68
2018-03-29T11:25:44.275Z,9.00
2018-03-29T11:28:14.056Z,10.00
2018-03-29T11:30:42.157Z,10.63
2018-03-29T11:33:11.135Z,9.68
2018-03-29T11:35:41.830Z,12.18
2018-03-29T11:38:10.016Z,14.63
2018-03-29T11:40:38.177Z,14.07
2018-03-29T11:43:06.307Z,14.48
2018-03-29T11:45:35.334Z,12.60
2018-03-29T11:48:03.726Z,13.60
2018-03-29T11:50:31.823Z,16.90
2018-03-29T11:52:59.944Z,15.80
2018-03-29T11:55:28.042Z,20.17
2018-03-29T11:57:56.212Z,17.95
2018-03-29T12:00:24.347Z,12.93
2018-03-29T12:15:42.458Z,13.45
2018-03-29T12:18:10.608Z,12.18
2018-03-29T12:20:38.751Z,15.35
2018-03-29T12:23:06.846Z,12.25
2018-03-29T12:25:34.972Z,13.95
2018-03-29T12:28:03.079Z,11.77
2018-03-29T12:30:31.308Z,12.88
2018-03-29T12:32:59.429Z,14.73
2018-03-29T12:35:27.543Z,16.12
2018-03-29T12:37:55.730Z,14.18
2018-03-29T12:40:24.118Z,8.80
2018-03-29T12:42:52.243Z,10.50
2018-03-29T12:45:20.998Z,9.13
2018-03-29T12:47:49.087Z,7.93
2018-03-29T12:50:17.538Z,8.52
2018-03-29T12:52:45.627Z,7.07
2018-03-29T12:55:26.085Z,9.18
2018-03-29T12:58:12.882Z,5.95
2018-03-29T13:00:45.940Z,8.20
2018-03-29T13:03:14.034Z,6.25
2018-03-29T13:05:43.354Z,9.88
2018-03-29T13:08:11.478Z,7.35
2018-03-29T13:10:39.620Z,5.10
2018-03-29T13:15:44.188Z,4.75
2018-03-29T13:18:12.286Z,3.42
2018-03-29T13:20:40.414Z,5.53
2018-03-29T13:23:08.568Z,7.95
2018-03-29T13:25:36.733Z,4.97
2018-03-29T13:28:04.857Z,3.10
2018-03-29T13:30:33.021Z,3.75
2018-03-29T13:33:01.806Z,4.47
2018-03-29T13:35:30.195Z,4.72
2018-03-29T13:37:58.346Z,3.87
2018-03-29T13:40:26.732Z,6.93
2018-03-29T13:42:55.151Z,8.93
2018-03-29T13:45:23.266Z,4.50
2018-03-29T13:47:51.507Z,3.30
2018-03-29T13:50:19.607Z,3.57
2018-03-29T13:52:48.447Z,2.67
2018-03-29T13:55:17.385Z,4.57
2018-03-29T13:57:45.498Z,2.78
2018-03-29T14:00:14.118Z,7.72
2018-03-29T14:02:42.270Z,4.22
2018-03-29T14:05:10.435Z,4.00
2018-03-29T14:07:38.640Z,2.17
2018-03-29T14:10:06.828Z,4.72
2018-03-29T14:12:34.950Z,5.68
2018-03-29T14:15:03.045Z,2.17
2018-03-29T14:17:31.486Z,5.60
2018-03-29T14:19:59.606Z,4.53
2018-03-29T14:22:27.817Z,2.73
2018-03-29T14:24:55.907Z,3.15
2018-03-29T14:27:24.010Z,2.37
2018-03-29T14:29:52.498Z,2.93
2018-03-29T14:32:20.744Z,2.57
2018-03-29T14:34:48.850Z,3.70
2018-03-29T14:37:17.084Z,3.07
2018-03-29T14:39:45.257Z,6.95
2018-03-29T14:42:13.509Z,5.30
2018-03-29T14:44:41.653Z,7.25
2018-03-29T14:47:10.095Z,4.43
2018-03-29T14:49:38.172Z,4.83
2018-03-29T14:52:06.321Z,5.57
2018-03-29T14:54:34.414Z,5.80
2018-03-29T14:57:03.491Z,4.10
2018-03-29T14:59:31.965Z,4.57
2018-03-29T15:02:00.150Z,8.45
2018-03-29T15:04:28.367Z,4.22
2018-03-29T15:06:56.798Z,6.33
2018-03-29T15:09:24.920Z,4.57
2018-03-29T15:11:53.765Z,3.00
2018-03-29T15:14:21.867Z,4.75
2018-03-29T15:16:49.977Z,3.80
2018-03-29T15:19:18.078Z,5.87
2018-03-29T15:21:46.216Z,5.83
2018-03-29T15:24:14.261Z,4.67
2018-03-29T15:26:42.362Z,5.70
2018-03-29T15:29:10.483Z,3.97
2018-03-29T15:31:38.633Z,5.33
2018-03-29T15:34:06.701Z,3.50
2018-03-29T15:36:40.091Z,4.60
2018-03-29T15:39:08.277Z,3.73
2018-03-29T15:41:36.371Z,5.47
2018-03-29T15:44:04.457Z,6.70
2018-03-29T15:46:32.549Z,5.60
2018-03-29T15:49:00.687Z,4.97
2018-03-29T15:51:28.775Z,3.97
2018-03-29T15:53:56.891Z,4.37
2018-03-29T15:56:25.043Z,5.50
2018-03-29T15:58:53.139Z,5.00
2018-03-29T16:01:22.186Z,6.23
2018-03-29T16:03:50.979Z,5.20
2018-03-29T16:06:19.068Z,4.93
2018-03-29T16:08:47.492Z,5.60
2018-03-29T16:11:15.627Z,3.10
2018-03-29T16:13:43.727Z,3.80
2018-03-29T16:16:12.704Z,3.20
2018-03-29T16:18:43.211Z,3.60
2018-03-29T16:21:11.326Z,4.00
2018-03-29T16:23:39.445Z,4.90
2018-03-29T16:26:07.565Z,4.10
2018-03-29T16:28:35.691Z,3.33
2018-03-29T16:31:04.171Z,6.18
2018-03-29T16:33:32.275Z,6.00
2018-03-29T16:36:00.678Z,3.47
2018-03-29T16:38:28.770Z,4.17
2018-03-29T16:40:56.868Z,4.03
2018-03-29T16:43:25.054Z,5.05
2018-03-29T16:45:53.239Z,3.73
2018-03-29T16:48:21.373Z,3.77
2018-03-29T16:50:49.516Z,7.27
2018-03-29T16:53:22.881Z,5.28
2018-03-29T16:55:51.112Z,4.40
2018-03-29T16:58:19.218Z,4.78
2018-03-29T17:00:47.318Z,4.37
2018-03-29T17:03:16.158Z,5.10
2018-03-29T17:05:44.295Z,4.10
2018-03-29T17:08:13.742Z,3.37
2018-03-29T17:10:41.925Z,4.63
2018-03-29T17:13:10.641Z,4.23
2018-03-29T17:15:38.895Z,4.23
2018-03-29T17:18:06.983Z,7.97
2018-03-29T17:20:35.078Z,5.27
2018-03-29T17:23:03.273Z,5.33
2018-03-29T17:25:31.472Z,8.53
2018-03-29T17:27:59.594Z,6.00
2018-03-29T17:30:27.736Z,7.00
2018-03-29T17:32:55.846Z,5.97
2018-03-29T17:35:24.494Z,8.77
2018-03-29T17:37:52.598Z,6.17
2018-03-29T17:40:20.752Z,5.93
2018-03-29T17:42:48.844Z,7.13
2018-03-29T17:45:16.979Z,4.97
2018-03-29T17:47:45.080Z,5.47
2018-03-29T17:50:14.054Z,5.37
2018-03-29T17:52:42.156Z,5.00
2018-03-29T17:55:10.262Z,7.33
2018-03-29T17:57:39.631Z,5.60
2018-03-29T18:00:07.825Z,4.90
2018-03-29T18:02:35.946Z,5.77
2018-03-29T18:05:04.383Z,6.37
2018-03-29T18:07:33.468Z,5.97
2018-03-29T18:10:01.653Z,5.23
2018-03-29T18:12:29.752Z,8.17
2018-03-29T18:14:57.854Z,6.45
2018-03-29T18:17:26.597Z,7.93
2018-03-29T18:19:54.733Z,6.13
2018-03-29T18:22:22.853Z,8.00
2018-03-29T18:24:51.232Z,7.80
2018-03-29T18:27:20.628Z,8.67
2018-03-29T18:29:48.795Z,8.37
2018-03-29T18:32:16.916Z,7.47
2018-03-29T18:34:45.804Z,6.93
2018-03-29T18:37:13.936Z,5.10
2018-03-29T18:39:42.267Z,5.67
2018-03-29T18:42:10.435Z,6.00
2018-03-29T18:44:38.602Z,6.23
2018-03-29T18:47:06.695Z,5.77
2018-03-29T18:49:34.839Z,7.70
2018-03-29T18:52:02.958Z,5.97
2018-03-29T18:54:31.165Z,8.23
2018-03-29T18:56:59.253Z,10.70
2018-03-29T18:59:28.201Z,6.17
2018-03-29T19:01:56.311Z,5.87
2018-03-29T19:04:24.428Z,5.60
2018-03-29T19:06:52.561Z,7.18
2018-03-29T19:09:20.657Z,9.87
2018-03-29T19:11:49.554Z,8.73
2018-03-29T19:14:17.682Z,5.10
2018-03-29T19:16:45.837Z,8.68
2018-03-29T19:19:13.934Z,6.83
2018-03-29T19:21:42.349Z,7.22
2018-03-29T19:24:11.078Z,4.95
2018-03-29T19:26:39.177Z,6.80
2018-03-29T19:29:07.577Z,5.68
2018-03-29T19:31:35.973Z,5.97
2018-03-29T19:34:04.269Z,7.93
2018-03-29T19:36:32.545Z,9.90
2018-03-29T19:39:01.579Z,5.77
2018-03-29T19:41:29.701Z,4.90
2018-03-29T19:43:58.849Z,6.87
2018-03-29T19:46:27.851Z,7.57
2018-03-29T19:48:55.992Z,4.65
2018-03-29T19:51:24.103Z,5.45
2018-03-29T19:53:52.947Z,8.48
2018-03-29T19:56:21.077Z,4.87
2018-03-29T19:58:49.215Z,5.93
2018-03-29T20:01:17.801Z,3.78
2018-03-29T20:03:45.964Z,5.15
2018-03-29T20:06:14.121Z,5.43
2018-03-29T20:08:42.222Z,7.10
2018-03-29T20:11:10.335Z,5.37
2018-03-29T20:13:39.134Z,8.52
2018-03-29T20:16:07.304Z,3.37
2018-03-29T20:18:35.421Z,5.10
2018-03-29T20:21:03.589Z,5.68
2018-03-29T20:23:32.379Z,3.60
2018-03-29T20:42:06.248Z,3.50
2018-03-29T20:44:34.344Z,6.00
2018-03-29T20:47:02.474Z,5.15
2018-03-29T20:49:30.598Z,3.47
2018-03-29T20:51:58.692Z,4.32
2018-03-29T20:54:26.899Z,4.20
2018-03-29T20:56:55.051Z,3.40
2018-03-29T20:59:23.147Z,4.40
2018-03-29T21:01:52.344Z,3.70
2018-03-29T21:04:20.402Z,5.35
2018-03-29T21:06:49.694Z,4.47
2018-03-29T21:09:17.803Z,3.92
2018-03-29T21:11:45.911Z,5.62
2018-03-29T21:14:13.994Z,3.60
2018-03-29T21:16:42.109Z,7.78
2018-03-29T21:19:10.331Z,4.53
2018-03-29T21:21:39.293Z,4.28
2018-03-29T21:24:08.174Z,3.97
2018-03-29T21:26:36.271Z,3.42
2018-03-29T21:29:04.440Z,3.62
2018-03-29T21:31:32.614Z,5.45
2018-03-29T21:34:00.703Z,6.60
2018-03-29T21:36:28.950Z,5.28
2018-03-29T21:39:02.002Z,3.30
2018-03-29T21:41:30.097Z,4.25
2018-03-29T21:43:58.191Z,6.07
2018-03-29T21:46:26.308Z,5.78
2018-03-29T21:48:54.461Z,3.97
2018-03-29T21:51:22.550Z,3.45
2018-03-29T21:53:50.655Z,6.95
2018-03-29T21:56:18.758Z,4.22
2018-03-29T21:58:46.861Z,4.40
2018-03-29T22:01:14.989Z,3.97
2018-03-29T22:03:43.082Z,6.03
2018-03-29T22:06:11.188Z,5.30
2018-03-29T22:21:29.296Z,4.25
2018-03-29T22:23:57.370Z,4.75
2018-03-29T22:26:25.501Z,7.25
2018-03-29T22:28:53.561Z,7.32
2018-03-29T22:31:21.653Z,5.12
2018-03-29T22:33:49.777Z,5.50
2018-03-29T22:36:18.404Z,10.48
2018-03-29T22:38:47.818Z,4.43
2018-03-29T22:41:15.937Z,4.62
2018-03-29T22:43:44.842Z,7.07
2018-03-29T22:46:13.696Z,4.40
2018-03-29T22:48:41.786Z,8.77
2018-03-29T22:51:09.886Z,3.75
2018-03-29T22:53:38.681Z,5.97
2018-03-29T22:56:07.664Z,5.32
2018-03-29T22:58:35.846Z,4.90
2018-03-29T23:01:03.919Z,4.75
2018-03-29T23:03:32.035Z,6.43
2018-03-29T23:06:00.214Z,4.35
2018-03-29T23:08:28.298Z,4.05
2018-03-29T23:10:56.423Z,5.75
2018-03-29T23:15:58.779Z,4.65
2018-03-29T23:18:26.918Z,6.10
2018-03-29T23:20:55.035Z,4.55
2018-03-29T23:23:23.141Z,6.93
2018-03-29T23:25:51.242Z,4.43
2018-03-29T23:28:19.360Z,4.82
2018-03-29T23:30:47.493Z,4.70
2018-03-29T23:33:15.593Z,5.40
2018-03-29T23:35:44.462Z,5.35
2018-03-29T23:38:15.602Z,5.35
2018-03-29T23:40:43.748Z,4.18
2018-03-29T23:43:11.822Z,6.50
2018-03-29T23:45:39.909Z,5.57
2018-03-29T23:48:08.003Z,6.18
2018-03-29T23:50:36.097Z,4.47
2018-03-29T23:53:04.333Z,5.45
2018-03-29T23:55:32.511Z,6.90
2018-03-29T23:58:12.331Z,4.55
